sensor_id;sensor_type;location;lat;lon;timestamp;temperature;humidity
65876;HTU21D;52657;51.128;5.938;2023-10-31T00:01:13;14.45;72.21
65876;HTU21D;52657;51.128;5.938;2023-10-31T00:03:39;14.44;72.29
65876;HTU21D;52657;51.128;5.938;2023-10-31T00:06:06;14.40;72.27
65876;HTU21D;52657;51.128;5.938;2023-10-31T00:08:33;14.39;72.25
65876;HTU21D;52657;51.128;5.938;2023-10-31T00:10:58;14.36;72.25
65876;HTU21D;52657;51.128;5.938;2023-10-31T00:13:24;14.29;72.53
65876;HTU21D;52657;51.128;5.938;2023-10-31T00:15:50;14.26;72.67
65876;HTU21D;52657;51.128;5.938;2023-10-31T00:18:16;14.23;72.67
65876;HTU21D;52657;51.128;5.938;2023-10-31T00:20:42;14.18;72.74
65876;HTU21D;52657;51.128;5.938;2023-10-31T00:23:07;14.13;72.93
65876;HTU21D;52657;51.128;5.938;2023-10-31T00:25:33;14.08;73.19
65876;HTU21D;52657;51.128;5.938;2023-10-31T00:35:43;14.00;74.02
65876;HTU21D;52657;51.128;5.938;2023-10-31T00:38:10;14.05;73.96
65876;HTU21D;52657;51.128;5.938;2023-10-31T00:40:36;14.06;73.90
65876;HTU21D;52657;51.128;5.938;2023-10-31T00:43:02;14.06;73.86
65876;HTU21D;52657;51.128;5.938;2023-10-31T00:45:27;14.07;73.78
65876;HTU21D;52657;51.128;5.938;2023-10-31T00:47:53;14.06;73.86
65876;HTU21D;52657;51.128;5.938;2023-10-31T00:50:19;14.09;73.57
65876;HTU21D;52657;51.128;5.938;2023-10-31T00:52:44;14.06;73.80
65876;HTU21D;52657;51.128;5.938;2023-10-31T00:55:10;14.05;73.93
65876;HTU21D;52657;51.128;5.938;2023-10-31T00:57:37;14.04;73.99
65876;HTU21D;52657;51.128;5.938;2023-10-31T01:00:03;14.05;73.88
65876;HTU21D;52657;51.128;5.938;2023-10-31T01:02:29;14.05;74.00
65876;HTU21D;52657;51.128;5.938;2023-10-31T01:04:55;14.01;74.02
65876;HTU21D;52657;51.128;5.938;2023-10-31T01:07:21;13.98;74.05
65876;HTU21D;52657;51.128;5.938;2023-10-31T01:09:46;13.91;74.24
65876;HTU21D;52657;51.128;5.938;2023-10-31T01:12:13;13.90;74.44
65876;HTU21D;52657;51.128;5.938;2023-10-31T01:14:39;13.88;74.63
65876;HTU21D;52657;51.128;5.938;2023-10-31T01:17:05;13.82;74.82
65876;HTU21D;52657;51.128;5.938;2023-10-31T01:19:31;13.79;75.11
65876;HTU21D;52657;51.128;5.938;2023-10-31T01:21:56;13.77;75.18
65876;HTU21D;52657;51.128;5.938;2023-10-31T01:24:22;13.73;75.41
65876;HTU21D;52657;51.128;5.938;2023-10-31T01:26:49;13.76;75.54
65876;HTU21D;52657;51.128;5.938;2023-10-31T01:29:14;13.80;75.41
65876;HTU21D;52657;51.128;5.938;2023-10-31T01:31:41;13.82;75.26
65876;HTU21D;52657;51.128;5.938;2023-10-31T01:34:08;13.82;75.34
65876;HTU21D;52657;51.128;5.938;2023-10-31T01:36:34;13.82;75.39
65876;HTU21D;52657;51.128;5.938;2023-10-31T01:38:59;13.83;75.28
65876;HTU21D;52657;51.128;5.938;2023-10-31T01:41:26;13.82;75.41
65876;HTU21D;52657;51.128;5.938;2023-10-31T01:43:53;13.82;75.33
65876;HTU21D;52657;51.128;5.938;2023-10-31T01:46:18;13.79;75.54
65876;HTU21D;52657;51.128;5.938;2023-10-31T01:48:44;13.80;75.68
65876;HTU21D;52657;51.128;5.938;2023-10-31T01:51:11;13.83;75.80
65876;HTU21D;52657;51.128;5.938;2023-10-31T01:53:37;13.90;75.66
65876;HTU21D;52657;51.128;5.938;2023-10-31T01:56:03;13.89;75.55
65876;HTU21D;52657;51.128;5.938;2023-10-31T01:58:35;13.91;75.59
65876;HTU21D;52657;51.128;5.938;2023-10-31T02:01:01;13.91;75.56
65876;HTU21D;52657;51.128;5.938;2023-10-31T02:03:28;13.94;75.59
65876;HTU21D;52657;51.128;5.938;2023-10-31T02:05:55;13.93;75.59
65876;HTU21D;52657;51.128;5.938;2023-10-31T02:08:21;13.93;75.51
65876;HTU21D;52657;51.128;5.938;2023-10-31T02:10:50;13.90;75.76
65876;HTU21D;52657;51.128;5.938;2023-10-31T02:13:17;13.85;75.76
65876;HTU21D;52657;51.128;5.938;2023-10-31T02:15:46;13.82;75.92
65876;HTU21D;52657;51.128;5.938;2023-10-31T02:18:12;13.83;75.90
65876;HTU21D;52657;51.128;5.938;2023-10-31T02:20:38;13.82;75.79
65876;HTU21D;52657;51.128;5.938;2023-10-31T02:23:04;13.80;75.92
65876;HTU21D;52657;51.128;5.938;2023-10-31T02:25:30;13.81;75.83
65876;HTU21D;52657;51.128;5.938;2023-10-31T02:27:57;13.79;75.71
65876;HTU21D;52657;51.128;5.938;2023-10-31T02:30:24;13.79;75.86
65876;HTU21D;52657;51.128;5.938;2023-10-31T02:32:50;13.85;75.55
65876;HTU21D;52657;51.128;5.938;2023-10-31T02:35:17;13.84;75.56
65876;HTU21D;52657;51.128;5.938;2023-10-31T02:37:44;13.89;75.46
65876;HTU21D;52657;51.128;5.938;2023-10-31T02:40:10;13.85;75.42
65876;HTU21D;52657;51.128;5.938;2023-10-31T02:42:36;13.86;75.41
65876;HTU21D;52657;51.128;5.938;2023-10-31T02:45:02;13.89;75.38
65876;HTU21D;52657;51.128;5.938;2023-10-31T02:47:29;13.92;75.25
65876;HTU21D;52657;51.128;5.938;2023-10-31T02:49:55;13.95;74.99
65876;HTU21D;52657;51.128;5.938;2023-10-31T02:52:21;13.95;74.89
65876;HTU21D;52657;51.128;5.938;2023-10-31T02:54:47;13.96;74.86
65876;HTU21D;52657;51.128;5.938;2023-10-31T02:57:13;13.98;74.83
65876;HTU21D;52657;51.128;5.938;2023-10-31T02:59:39;13.98;74.69
65876;HTU21D;52657;51.128;5.938;2023-10-31T03:02:04;13.96;74.65
65876;HTU21D;52657;51.128;5.938;2023-10-31T03:04:30;13.94;74.68
65876;HTU21D;52657;51.128;5.938;2023-10-31T03:06:57;13.90;74.66
65876;HTU21D;52657;51.128;5.938;2023-10-31T03:09:23;13.85;74.86
65876;HTU21D;52657;51.128;5.938;2023-10-31T03:11:49;13.86;75.02
65876;HTU21D;52657;51.128;5.938;2023-10-31T03:14:15;13.91;74.95
65876;HTU21D;52657;51.128;5.938;2023-10-31T03:16:41;13.93;74.90
65876;HTU21D;52657;51.128;5.938;2023-10-31T03:19:10;13.89;74.89
65876;HTU21D;52657;51.128;5.938;2023-10-31T03:21:36;13.89;74.87
65876;HTU21D;52657;51.128;5.938;2023-10-31T03:24:02;13.84;75.09
65876;HTU21D;52657;51.128;5.938;2023-10-31T03:26:28;13.78;75.34
65876;HTU21D;52657;51.128;5.938;2023-10-31T03:28:53;13.79;75.38
65876;HTU21D;52657;51.128;5.938;2023-10-31T03:31:23;13.80;75.32
65876;HTU21D;52657;51.128;5.938;2023-10-31T03:33:50;13.84;75.19
65876;HTU21D;52657;51.128;5.938;2023-10-31T03:36:17;13.82;75.29
65876;HTU21D;52657;51.128;5.938;2023-10-31T03:38:43;13.84;75.21
65876;HTU21D;52657;51.128;5.938;2023-10-31T03:41:09;13.85;75.25
65876;HTU21D;52657;51.128;5.938;2023-10-31T03:43:35;13.82;75.23
65876;HTU21D;52657;51.128;5.938;2023-10-31T03:46:01;13.85;75.33
65876;HTU21D;52657;51.128;5.938;2023-10-31T03:48:27;13.84;75.36
65876;HTU21D;52657;51.128;5.938;2023-10-31T03:50:53;13.83;75.26
65876;HTU21D;52657;51.128;5.938;2023-10-31T03:53:19;13.80;75.34
65876;HTU21D;52657;51.128;5.938;2023-10-31T03:55:45;13.83;75.30
65876;HTU21D;52657;51.128;5.938;2023-10-31T03:58:10;13.85;75.15
65876;HTU21D;52657;51.128;5.938;2023-10-31T04:00:38;13.90;75.08
65876;HTU21D;52657;51.128;5.938;2023-10-31T04:03:04;13.93;74.96
65876;HTU21D;52657;51.128;5.938;2023-10-31T04:05:30;13.92;74.83
65876;HTU21D;52657;51.128;5.938;2023-10-31T04:07:56;13.93;74.87
65876;HTU21D;52657;51.128;5.938;2023-10-31T04:10:21;13.89;74.91
65876;HTU21D;52657;51.128;5.938;2023-10-31T04:12:48;13.86;74.97
65876;HTU21D;52657;51.128;5.938;2023-10-31T04:15:13;13.89;74.81
65876;HTU21D;52657;51.128;5.938;2023-10-31T04:17:41;13.91;74.70
65876;HTU21D;52657;51.128;5.938;2023-10-31T04:20:07;13.93;74.55
65876;HTU21D;52657;51.128;5.938;2023-10-31T04:22:33;13.97;74.39
65876;HTU21D;52657;51.128;5.938;2023-10-31T04:24:59;14.01;74.15
65876;HTU21D;52657;51.128;5.938;2023-10-31T04:27:25;14.04;74.08
65876;HTU21D;52657;51.128;5.938;2023-10-31T04:29:51;14.00;73.94
65876;HTU21D;52657;51.128;5.938;2023-10-31T04:32:16;14.01;73.93
65876;HTU21D;52657;51.128;5.938;2023-10-31T04:34:42;14.01;73.86
65876;HTU21D;52657;51.128;5.938;2023-10-31T04:37:08;14.00;73.82
65876;HTU21D;52657;51.128;5.938;2023-10-31T04:39:35;14.01;73.80
65876;HTU21D;52657;51.128;5.938;2023-10-31T04:42:01;13.98;73.72
65876;HTU21D;52657;51.128;5.938;2023-10-31T04:44:26;13.94;73.89
65876;HTU21D;52657;51.128;5.938;2023-10-31T04:46:52;13.95;74.02
65876;HTU21D;52657;51.128;5.938;2023-10-31T04:49:18;13.93;74.04
65876;HTU21D;52657;51.128;5.938;2023-10-31T04:51:44;13.90;74.12
65876;HTU21D;52657;51.128;5.938;2023-10-31T04:54:10;13.89;74.23
65876;HTU21D;52657;51.128;5.938;2023-10-31T04:56:36;13.90;74.16
65876;HTU21D;52657;51.128;5.938;2023-10-31T04:59:02;13.90;74.28
65876;HTU21D;52657;51.128;5.938;2023-10-31T05:01:28;13.86;74.28
65876;HTU21D;52657;51.128;5.938;2023-10-31T05:03:54;13.85;74.46
65876;HTU21D;52657;51.128;5.938;2023-10-31T05:06:21;13.84;74.67
65876;HTU21D;52657;51.128;5.938;2023-10-31T05:08:47;13.82;74.52
65876;HTU21D;52657;51.128;5.938;2023-10-31T05:11:13;13.80;74.54
65876;HTU21D;52657;51.128;5.938;2023-10-31T05:13:39;13.74;74.55
65876;HTU21D;52657;51.128;5.938;2023-10-31T05:16:05;13.73;74.73
65876;HTU21D;52657;51.128;5.938;2023-10-31T05:18:31;13.71;74.80
65876;HTU21D;52657;51.128;5.938;2023-10-31T05:20:57;13.75;74.61
65876;HTU21D;52657;51.128;5.938;2023-10-31T05:23:23;13.77;74.51
65876;HTU21D;52657;51.128;5.938;2023-10-31T05:25:48;13.79;74.32
65876;HTU21D;52657;51.128;5.938;2023-10-31T05:28:14;13.81;74.18
65876;HTU21D;52657;51.128;5.938;2023-10-31T05:30:41;13.80;74.09
65876;HTU21D;52657;51.128;5.938;2023-10-31T05:33:06;13.77;74.15
65876;HTU21D;52657;51.128;5.938;2023-10-31T05:35:33;13.75;74.09
65876;HTU21D;52657;51.128;5.938;2023-10-31T05:37:59;13.78;73.99
65876;HTU21D;52657;51.128;5.938;2023-10-31T05:40:25;13.79;73.88
65876;HTU21D;52657;51.128;5.938;2023-10-31T05:42:52;13.71;73.86
65876;HTU21D;52657;51.128;5.938;2023-10-31T05:45:18;13.66;74.03
65876;HTU21D;52657;51.128;5.938;2023-10-31T05:47:44;13.64;74.22
65876;HTU21D;52657;51.128;5.938;2023-10-31T05:50:10;13.67;74.12
65876;HTU21D;52657;51.128;5.938;2023-10-31T05:52:36;13.68;73.91
65876;HTU21D;52657;51.128;5.938;2023-10-31T05:55:02;13.65;74.01
65876;HTU21D;52657;51.128;5.938;2023-10-31T05:57:29;13.68;74.12
65876;HTU21D;52657;51.128;5.938;2023-10-31T05:59:54;13.71;73.90
65876;HTU21D;52657;51.128;5.938;2023-10-31T06:02:20;13.67;74.08
65876;HTU21D;52657;51.128;5.938;2023-10-31T06:04:46;13.69;74.12
65876;HTU21D;52657;51.128;5.938;2023-10-31T06:07:12;13.71;74.08
65876;HTU21D;52657;51.128;5.938;2023-10-31T06:09:38;13.78;73.80
65876;HTU21D;52657;51.128;5.938;2023-10-31T06:12:04;13.82;73.63
65876;HTU21D;52657;51.128;5.938;2023-10-31T06:14:31;13.82;73.50
65876;HTU21D;52657;51.128;5.938;2023-10-31T06:16:57;13.83;73.40
65876;HTU21D;52657;51.128;5.938;2023-10-31T06:19:24;13.83;73.37
65876;HTU21D;52657;51.128;5.938;2023-10-31T06:21:50;13.79;73.38
65876;HTU21D;52657;51.128;5.938;2023-10-31T06:24:16;13.74;73.44
65876;HTU21D;52657;51.128;5.938;2023-10-31T06:26:42;13.70;73.53
65876;HTU21D;52657;51.128;5.938;2023-10-31T06:29:08;13.65;73.68
65876;HTU21D;52657;51.128;5.938;2023-10-31T06:31:33;13.62;73.87
65876;HTU21D;52657;51.128;5.938;2023-10-31T06:33:59;13.63;73.92
65876;HTU21D;52657;51.128;5.938;2023-10-31T06:36:25;13.61;73.90
65876;HTU21D;52657;51.128;5.938;2023-10-31T06:38:51;13.63;73.86
65876;HTU21D;52657;51.128;5.938;2023-10-31T06:41:17;13.60;73.89
65876;HTU21D;52657;51.128;5.938;2023-10-31T06:43:42;13.59;73.93
65876;HTU21D;52657;51.128;5.938;2023-10-31T06:46:08;13.59;73.96
65876;HTU21D;52657;51.128;5.938;2023-10-31T06:48:34;13.56;73.90
65876;HTU21D;52657;51.128;5.938;2023-10-31T06:51:00;13.55;74.01
65876;HTU21D;52657;51.128;5.938;2023-10-31T06:53:26;13.56;73.93
65876;HTU21D;52657;51.128;5.938;2023-10-31T06:55:52;13.54;73.96
65876;HTU21D;52657;51.128;5.938;2023-10-31T06:58:18;13.58;73.91
65876;HTU21D;52657;51.128;5.938;2023-10-31T07:00:43;13.58;73.85
65876;HTU21D;52657;51.128;5.938;2023-10-31T07:03:09;13.56;73.80
65876;HTU21D;52657;51.128;5.938;2023-10-31T07:05:41;13.60;73.83
65876;HTU21D;52657;51.128;5.938;2023-10-31T07:08:09;13.61;73.76
65876;HTU21D;52657;51.128;5.938;2023-10-31T07:10:35;13.56;73.82
65876;HTU21D;52657;51.128;5.938;2023-10-31T07:13:01;13.59;73.77
65876;HTU21D;52657;51.128;5.938;2023-10-31T07:15:27;13.56;73.71
65876;HTU21D;52657;51.128;5.938;2023-10-31T07:17:53;13.51;73.66
65876;HTU21D;52657;51.128;5.938;2023-10-31T07:20:19;13.54;73.57
65876;HTU21D;52657;51.128;5.938;2023-10-31T07:22:44;13.55;73.57
65876;HTU21D;52657;51.128;5.938;2023-10-31T07:25:11;13.58;73.53
65876;HTU21D;52657;51.128;5.938;2023-10-31T07:27:37;13.56;73.48
65876;HTU21D;52657;51.128;5.938;2023-10-31T07:30:03;13.56;73.53
65876;HTU21D;52657;51.128;5.938;2023-10-31T07:32:32;13.63;73.42
65876;HTU21D;52657;51.128;5.938;2023-10-31T07:34:58;13.67;73.29
65876;HTU21D;52657;51.128;5.938;2023-10-31T07:37:24;13.71;73.19
65876;HTU21D;52657;51.128;5.938;2023-10-31T07:39:49;13.70;73.10
65876;HTU21D;52657;51.128;5.938;2023-10-31T07:42:18;13.71;73.27
65876;HTU21D;52657;51.128;5.938;2023-10-31T07:44:44;13.75;73.13
65876;HTU21D;52657;51.128;5.938;2023-10-31T07:47:10;13.75;73.01
65876;HTU21D;52657;51.128;5.938;2023-10-31T07:49:36;13.76;73.26
65876;HTU21D;52657;51.128;5.938;2023-10-31T07:52:02;13.82;73.17
65876;HTU21D;52657;51.128;5.938;2023-10-31T07:54:27;13.86;73.08
65876;HTU21D;52657;51.128;5.938;2023-10-31T07:56:53;13.91;72.84
65876;HTU21D;52657;51.128;5.938;2023-10-31T07:59:20;13.91;72.83
65876;HTU21D;52657;51.128;5.938;2023-10-31T08:01:46;13.94;72.79
65876;HTU21D;52657;51.128;5.938;2023-10-31T08:04:14;14.00;72.62
65876;HTU21D;52657;51.128;5.938;2023-10-31T08:06:41;14.07;72.32
65876;HTU21D;52657;51.128;5.938;2023-10-31T08:09:07;14.11;72.42
65876;HTU21D;52657;51.128;5.938;2023-10-31T08:11:33;14.21;71.96
65876;HTU21D;52657;51.128;5.938;2023-10-31T08:14:00;14.34;71.60
65876;HTU21D;52657;51.128;5.938;2023-10-31T08:16:27;14.51;71.32
65876;HTU21D;52657;51.128;5.938;2023-10-31T08:18:53;14.88;71.15
65876;HTU21D;52657;51.128;5.938;2023-10-31T08:21:19;15.60;70.60
65876;HTU21D;52657;51.128;5.938;2023-10-31T08:23:45;16.19;67.94
65876;HTU21D;52657;51.128;5.938;2023-10-31T08:26:12;16.79;66.32
65876;HTU21D;52657;51.128;5.938;2023-10-31T08:28:38;17.39;63.05
65876;HTU21D;52657;51.128;5.938;2023-10-31T08:31:04;17.58;62.67
65876;HTU21D;52657;51.128;5.938;2023-10-31T08:33:30;17.73;61.25
65876;HTU21D;52657;51.128;5.938;2023-10-31T08:35:56;17.89;60.80
65876;HTU21D;52657;51.128;5.938;2023-10-31T08:38:22;17.85;60.00
65876;HTU21D;52657;51.128;5.938;2023-10-31T08:40:48;17.78;60.37
65876;HTU21D;52657;51.128;5.938;2023-10-31T08:43:14;17.89;60.21
65876;HTU21D;52657;51.128;5.938;2023-10-31T08:45:41;17.64;59.52
65876;HTU21D;52657;51.128;5.938;2023-10-31T08:48:07;17.24;60.22
65876;HTU21D;52657;51.128;5.938;2023-10-31T08:50:33;16.91;60.96
65876;HTU21D;52657;51.128;5.938;2023-10-31T08:52:59;16.65;61.66
65876;HTU21D;52657;51.128;5.938;2023-10-31T08:55:25;16.50;62.21
65876;HTU21D;52657;51.128;5.938;2023-10-31T08:57:50;16.32;62.73
65876;HTU21D;52657;51.128;5.938;2023-10-31T09:00:18;16.63;63.21
65876;HTU21D;52657;51.128;5.938;2023-10-31T09:02:45;16.99;62.52
65876;HTU21D;52657;51.128;5.938;2023-10-31T09:05:10;17.33;60.15
65876;HTU21D;52657;51.128;5.938;2023-10-31T09:07:36;17.75;60.46
65876;HTU21D;52657;51.128;5.938;2023-10-31T09:10:02;18.13;59.44
65876;HTU21D;52657;51.128;5.938;2023-10-31T09:12:31;18.70;58.62
65876;HTU21D;52657;51.128;5.938;2023-10-31T09:14:57;18.96;57.28
65876;HTU21D;52657;51.128;5.938;2023-10-31T09:17:23;19.27;56.82
65876;HTU21D;52657;51.128;5.938;2023-10-31T09:19:49;19.35;55.34
65876;HTU21D;52657;51.128;5.938;2023-10-31T09:22:14;18.91;55.29
65876;HTU21D;52657;51.128;5.938;2023-10-31T09:24:42;18.47;56.19
65876;HTU21D;52657;51.128;5.938;2023-10-31T09:27:09;18.18;57.41
65876;HTU21D;52657;51.128;5.938;2023-10-31T09:29:35;17.92;57.87
65876;HTU21D;52657;51.128;5.938;2023-10-31T09:32:01;17.64;58.32
65876;HTU21D;52657;51.128;5.938;2023-10-31T09:34:27;17.67;59.16
65876;HTU21D;52657;51.128;5.938;2023-10-31T09:36:53;17.95;59.38
65876;HTU21D;52657;51.128;5.938;2023-10-31T09:39:19;18.06;58.63
65876;HTU21D;52657;51.128;5.938;2023-10-31T09:41:45;18.40;58.70
65876;HTU21D;52657;51.128;5.938;2023-10-31T09:44:12;18.84;56.96
65876;HTU21D;52657;51.128;5.938;2023-10-31T09:46:39;18.96;56.93
65876;HTU21D;52657;51.128;5.938;2023-10-31T09:49:08;19.02;55.88
65876;HTU21D;52657;51.128;5.938;2023-10-31T09:51:34;19.21;56.62
65876;HTU21D;52657;51.128;5.938;2023-10-31T09:54:02;19.44;56.03
65876;HTU21D;52657;51.128;5.938;2023-10-31T09:56:29;19.59;55.07
65876;HTU21D;52657;51.128;5.938;2023-10-31T09:59:01;19.35;54.69
65876;HTU21D;52657;51.128;5.938;2023-10-31T10:01:31;19.01;54.92
65876;HTU21D;52657;51.128;5.938;2023-10-31T10:03:57;18.67;55.50
65876;HTU21D;52657;51.128;5.938;2023-10-31T10:06:23;18.28;56.32
65876;HTU21D;52657;51.128;5.938;2023-10-31T10:08:50;18.03;56.87
65876;HTU21D;52657;51.128;5.938;2023-10-31T10:11:16;17.75;57.54
65876;HTU21D;52657;51.128;5.938;2023-10-31T10:13:42;17.53;58.17
65876;HTU21D;52657;51.128;5.938;2023-10-31T10:16:09;17.22;58.90
65876;HTU21D;52657;51.128;5.938;2023-10-31T10:18:36;17.08;59.66
65876;HTU21D;52657;51.128;5.938;2023-10-31T10:21:07;17.04;60.30
65876;HTU21D;52657;51.128;5.938;2023-10-31T10:23:33;17.03;60.47
65876;HTU21D;52657;51.128;5.938;2023-10-31T10:26:01;17.02;60.26
65876;HTU21D;52657;51.128;5.938;2023-10-31T10:28:27;16.94;60.38
65876;HTU21D;52657;51.128;5.938;2023-10-31T10:30:57;16.85;60.68
65876;HTU21D;52657;51.128;5.938;2023-10-31T10:33:23;16.73;60.83
65876;HTU21D;52657;51.128;5.938;2023-10-31T10:35:49;16.63;61.08
65876;HTU21D;52657;51.128;5.938;2023-10-31T10:38:16;16.51;61.67
65876;HTU21D;52657;51.128;5.938;2023-10-31T10:40:45;16.47;61.78
65876;HTU21D;52657;51.128;5.938;2023-10-31T10:43:31;16.39;61.96
65876;HTU21D;52657;51.128;5.938;2023-10-31T10:45:59;16.39;62.17
65876;HTU21D;52657;51.128;5.938;2023-10-31T10:48:26;16.34;62.32
65876;HTU21D;52657;51.128;5.938;2023-10-31T10:51:13;16.34;62.29
65876;HTU21D;52657;51.128;5.938;2023-10-31T10:54:09;16.35;62.78
65876;HTU21D;52657;51.128;5.938;2023-10-31T10:56:46;16.39;62.78
65876;HTU21D;52657;51.128;5.938;2023-10-31T10:59:20;16.36;62.57
65876;HTU21D;52657;51.128;5.938;2023-10-31T11:01:48;16.35;62.77
65876;HTU21D;52657;51.128;5.938;2023-10-31T11:04:16;16.34;62.91
65876;HTU21D;52657;51.128;5.938;2023-10-31T11:06:43;16.31;62.57
65876;HTU21D;52657;51.128;5.938;2023-10-31T11:09:11;16.30;62.47
65876;HTU21D;52657;51.128;5.938;2023-10-31T11:11:39;16.27;62.55
65876;HTU21D;52657;51.128;5.938;2023-10-31T11:14:08;16.32;62.55
65876;HTU21D;52657;51.128;5.938;2023-10-31T11:16:45;16.34;61.98
65876;HTU21D;52657;51.128;5.938;2023-10-31T11:19:13;16.34;62.16
65876;HTU21D;52657;51.128;5.938;2023-10-31T11:21:58;16.41;62.20
65876;HTU21D;52657;51.128;5.938;2023-10-31T11:24:27;16.50;62.29
65876;HTU21D;52657;51.128;5.938;2023-10-31T11:26:59;16.62;62.66
65876;HTU21D;52657;51.128;5.938;2023-10-31T11:29:25;16.62;62.20
65876;HTU21D;52657;51.128;5.938;2023-10-31T11:31:53;16.64;62.47
65876;HTU21D;52657;51.128;5.938;2023-10-31T11:34:19;16.72;61.76
65876;HTU21D;52657;51.128;5.938;2023-10-31T11:36:46;16.77;61.69
65876;HTU21D;52657;51.128;5.938;2023-10-31T11:39:18;16.80;61.45
65876;HTU21D;52657;51.128;5.938;2023-10-31T11:41:53;16.86;61.36
65876;HTU21D;52657;51.128;5.938;2023-10-31T11:44:23;16.92;61.32
65876;HTU21D;52657;51.128;5.938;2023-10-31T11:46:51;16.90;61.14
65876;HTU21D;52657;51.128;5.938;2023-10-31T11:49:45;16.85;61.36
65876;HTU21D;52657;51.128;5.938;2023-10-31T11:52:16;16.79;61.26
65876;HTU21D;52657;51.128;5.938;2023-10-31T11:54:45;16.71;61.07
65876;HTU21D;52657;51.128;5.938;2023-10-31T11:57:10;16.59;61.03
65876;HTU21D;52657;51.128;5.938;2023-10-31T11:59:39;16.50;61.19
65876;HTU21D;52657;51.128;5.938;2023-10-31T12:02:15;16.48;61.64
65876;HTU21D;52657;51.128;5.938;2023-10-31T12:04:42;16.55;61.80
65876;HTU21D;52657;51.128;5.938;2023-10-31T12:07:08;16.56;61.84
65876;HTU21D;52657;51.128;5.938;2023-10-31T12:09:48;16.61;61.94
65876;HTU21D;52657;51.128;5.938;2023-10-31T12:12:15;16.67;61.96
65876;HTU21D;52657;51.128;5.938;2023-10-31T12:14:41;16.71;62.08
65876;HTU21D;52657;51.128;5.938;2023-10-31T12:17:07;16.80;62.06
65876;HTU21D;52657;51.128;5.938;2023-10-31T12:19:36;16.92;62.27
65876;HTU21D;52657;51.128;5.938;2023-10-31T12:22:02;17.06;61.83
65876;HTU21D;52657;51.128;5.938;2023-10-31T12:24:37;17.10;61.57
65876;HTU21D;52657;51.128;5.938;2023-10-31T12:27:03;17.06;60.96
65876;HTU21D;52657;51.128;5.938;2023-10-31T12:29:29;17.07;60.70
65876;HTU21D;52657;51.128;5.938;2023-10-31T12:31:55;17.03;60.68
65876;HTU21D;52657;51.128;5.938;2023-10-31T12:34:25;17.05;60.57
65876;HTU21D;52657;51.128;5.938;2023-10-31T12:36:52;17.06;60.44
65876;HTU21D;52657;51.128;5.938;2023-10-31T12:39:22;17.02;60.41
65876;HTU21D;52657;51.128;5.938;2023-10-31T12:41:50;17.04;60.25
65876;HTU21D;52657;51.128;5.938;2023-10-31T12:44:35;17.08;60.44
65876;HTU21D;52657;51.128;5.938;2023-10-31T12:47:01;17.16;60.60
65876;HTU21D;52657;51.128;5.938;2023-10-31T12:49:26;17.21;60.71
65876;HTU21D;52657;51.128;5.938;2023-10-31T12:52:01;17.25;59.87
65876;HTU21D;52657;51.128;5.938;2023-10-31T12:54:32;17.19;59.46
65876;HTU21D;52657;51.128;5.938;2023-10-31T12:57:05;17.23;59.81
65876;HTU21D;52657;51.128;5.938;2023-10-31T12:59:33;17.34;59.76
65876;HTU21D;52657;51.128;5.938;2023-10-31T13:01:59;17.41;59.62
65876;HTU21D;52657;51.128;5.938;2023-10-31T13:04:30;17.46;59.17
65876;HTU21D;52657;51.128;5.938;2023-10-31T13:09:35;17.47;59.40
65876;HTU21D;52657;51.128;5.938;2023-10-31T13:12:04;17.45;59.23
65876;HTU21D;52657;51.128;5.938;2023-10-31T13:14:30;17.41;59.02
65876;HTU21D;52657;51.128;5.938;2023-10-31T13:16:56;17.45;59.34
65876;HTU21D;52657;51.128;5.938;2023-10-31T13:19:22;17.46;59.38
65876;HTU21D;52657;51.128;5.938;2023-10-31T13:21:48;17.46;59.47
65876;HTU21D;52657;51.128;5.938;2023-10-31T13:24:16;17.43;59.08
65876;HTU21D;52657;51.128;5.938;2023-10-31T13:26:43;17.45;59.10
65876;HTU21D;52657;51.128;5.938;2023-10-31T13:29:17;17.41;58.74
65876;HTU21D;52657;51.128;5.938;2023-10-31T13:31:43;17.35;58.62
65876;HTU21D;52657;51.128;5.938;2023-10-31T13:34:11;17.36;58.90
65876;HTU21D;52657;51.128;5.938;2023-10-31T13:36:37;17.43;59.14
65876;HTU21D;52657;51.128;5.938;2023-10-31T13:39:04;17.47;59.12
65876;HTU21D;52657;51.128;5.938;2023-10-31T13:41:29;17.45;59.35
65876;HTU21D;52657;51.128;5.938;2023-10-31T13:43:55;17.45;58.82
65876;HTU21D;52657;51.128;5.938;2023-10-31T13:46:23;17.46;58.90
65876;HTU21D;52657;51.128;5.938;2023-10-31T13:48:49;17.43;58.12
65876;HTU21D;52657;51.128;5.938;2023-10-31T13:51:15;17.36;58.24
65876;HTU21D;52657;51.128;5.938;2023-10-31T13:53:44;17.31;58.29
65876;HTU21D;52657;51.128;5.938;2023-10-31T13:56:10;17.22;58.31
65876;HTU21D;52657;51.128;5.938;2023-10-31T13:58:36;17.15;58.53
65876;HTU21D;52657;51.128;5.938;2023-10-31T14:01:02;17.08;59.06
65876;HTU21D;52657;51.128;5.938;2023-10-31T14:03:28;17.03;59.34
65876;HTU21D;52657;51.128;5.938;2023-10-31T14:05:54;17.02;59.92
65876;HTU21D;52657;51.128;5.938;2023-10-31T14:08:21;17.03;60.12
65876;HTU21D;52657;51.128;5.938;2023-10-31T14:10:46;17.03;60.24
65876;HTU21D;52657;51.128;5.938;2023-10-31T14:13:13;17.05;60.51
65876;HTU21D;52657;51.128;5.938;2023-10-31T14:15:38;17.07;60.73
65876;HTU21D;52657;51.128;5.938;2023-10-31T14:18:04;17.05;60.76
65876;HTU21D;52657;51.128;5.938;2023-10-31T14:20:30;16.99;60.94
65876;HTU21D;52657;51.128;5.938;2023-10-31T14:22:56;16.94;61.22
65876;HTU21D;52657;51.128;5.938;2023-10-31T14:25:22;16.92;61.28
65876;HTU21D;52657;51.128;5.938;2023-10-31T14:27:48;16.88;61.34
65876;HTU21D;52657;51.128;5.938;2023-10-31T14:30:14;16.86;61.50
65876;HTU21D;52657;51.128;5.938;2023-10-31T14:32:40;16.86;61.79
65876;HTU21D;52657;51.128;5.938;2023-10-31T14:35:07;16.88;62.00
65876;HTU21D;52657;51.128;5.938;2023-10-31T14:37:33;16.81;62.34
65876;HTU21D;52657;51.128;5.938;2023-10-31T14:40:00;16.74;63.51
65876;HTU21D;52657;51.128;5.938;2023-10-31T14:42:28;16.65;64.82
65876;HTU21D;52657;51.128;5.938;2023-10-31T14:44:54;16.56;65.79
65876;HTU21D;52657;51.128;5.938;2023-10-31T14:47:22;16.47;66.32
65876;HTU21D;52657;51.128;5.938;2023-10-31T14:49:48;16.34;67.33
65876;HTU21D;52657;51.128;5.938;2023-10-31T14:52:13;16.24;67.84
65876;HTU21D;52657;51.128;5.938;2023-10-31T14:54:39;16.14;68.33
65876;HTU21D;52657;51.128;5.938;2023-10-31T14:57:05;16.14;68.64
65876;HTU21D;52657;51.128;5.938;2023-10-31T14:59:31;16.10;68.88
65876;HTU21D;52657;51.128;5.938;2023-10-31T15:02:15;16.08;69.42
65876;HTU21D;52657;51.128;5.938;2023-10-31T15:04:41;16.04;69.42
65876;HTU21D;52657;51.128;5.938;2023-10-31T15:07:07;16.03;69.76
65876;HTU21D;52657;51.128;5.938;2023-10-31T15:09:33;16.00;69.94
65876;HTU21D;52657;51.128;5.938;2023-10-31T15:11:59;15.98;69.97
65876;HTU21D;52657;51.128;5.938;2023-10-31T15:14:24;15.96;70.29
65876;HTU21D;52657;51.128;5.938;2023-10-31T15:16:50;15.97;70.24
65876;HTU21D;52657;51.128;5.938;2023-10-31T15:19:16;16.00;70.35
65876;HTU21D;52657;51.128;5.938;2023-10-31T15:21:42;15.92;70.60
65876;HTU21D;52657;51.128;5.938;2023-10-31T15:24:08;15.85;70.64